Time;durP1;ratioP1;P1;durP2;ratioP2;P2;SDS_P1;SDS_P2;PMS_P1;PMS_P2;Temp;Humidity;BMP_temperature;BMP_pressure;BME280_temperature;BME280_humidity;BME280_pressure;Samples;Min_cycle;Max_cycle;Signal;HPM_P1;HPM_P2
2022/08/30 00:01:27;;;;;;;29.90;20.40;;;;;;;19.92;90.10;95013.91;5114717;28;20245;-76
2022/08/30 00:03:54;;;;;;;23.92;16.88;;;;;;;19.75;89.49;94987.41;5114273;28;20554;-76
2022/08/30 00:06:21;;;;;;;27.45;16.92;;;;;;;19.91;89.48;95015.78;5114201;28;20277;-76
2022/08/30 00:08:50;;;;;;;23.33;16.13;;;;;;;19.84;89.68;95027.78;5127850;27;20172;-76
2022/08/30 00:11:21;;;;;;;22.60;15.10;;;;;;;19.76;90.51;95025.63;5134495;27;20180;-76
2022/08/30 00:13:51;;;;;;;19.80;14.02;;;;;;;19.76;90.36;95012.28;5134359;27;20638;-76
2022/08/30 00:16:18;;;;;;;18.60;13.65;;;;;;;19.75;90.59;95016.81;5134396;27;20643;-76
2022/08/30 00:18:44;;;;;;;40.60;14.25;;;;;;;19.73;90.45;95008.25;5134454;27;20184;-76
2022/08/30 00:21:09;;;;;;;17.02;12.32;;;;;;;19.71;90.49;95014.94;5125730;27;20558;-76
2022/08/30 00:23:36;;;;;;;17.50;12.13;;;;;;;19.71;90.33;95015.75;5134363;27;20176;-76
2022/08/30 00:26:02;;;;;;;19.17;13.27;;;;;;;19.41;90.58;94976.34;5134066;27;20211;-76
2022/08/30 00:28:29;;;;;;;19.27;11.68;;;;;;;19.69;90.19;95012.53;5134455;27;20184;-76
2022/08/30 00:30:54;;;;;;;22.17;12.00;;;;;;;19.72;90.28;95005.88;5134530;27;20624;-76
2022/08/30 00:33:21;;;;;;;27.67;12.23;;;;;;;19.71;89.90;95007.72;5134672;27;20188;-76
2022/08/30 00:35:46;;;;;;;20.27;11.10;;;;;;;19.61;89.80;94989.00;5115900;27;20180;-76
2022/08/30 00:38:13;;;;;;;20.00;10.48;;;;;;;19.53;90.34;95008.22;5134383;27;20193;-76
2022/08/30 00:40:40;;;;;;;14.93;11.00;;;;;;;19.44;90.82;95010.56;5106932;28;20188;-77
2022/08/30 00:43:13;;;;;;;24.65;15.82;;;;;;;19.38;91.10;95010.78;5114235;28;20294;-77
2022/08/30 00:45:39;;;;;;;24.33;16.02;;;;;;;19.39;91.05;95013.19;5131179;27;20196;-77
2022/08/30 00:48:05;;;;;;;18.38;12.07;;;;;;;19.44;90.76;95009.75;5113871;28;20173;-77
2022/08/30 00:50:57;;;;;;;32.45;18.45;;;;;;;19.40;90.79;95016.66;5120584;27;20211;-77
2022/08/30 00:53:27;;;;;;;25.30;15.68;;;;;;;19.28;90.72;94989.41;5114159;28;20255;-77
2022/08/30 00:55:54;;;;;;;19.80;13.73;;;;;;;19.26;90.32;94983.53;5123026;27;20244;-77
2022/08/30 00:58:26;;;;;;;21.45;13.70;;;;;;;19.42;90.46;95011.88;5121606;27;20662;-78
2022/08/30 01:00:56;;;;;;;20.10;13.82;;;;;;;19.43;90.94;95016.16;5123032;27;20232;-79
2022/08/30 01:03:23;;;;;;;21.42;13.95;;;;;;;19.43;90.79;95018.81;5126369;27;20182;-78
2022/08/30 01:05:50;;;;;;;21.95;14.30;;;;;;;19.43;90.97;95013.50;5126988;27;20696;-78
2022/08/30 01:08:16;;;;;;;19.77;11.88;;;;;;;19.37;90.71;95007.31;5131455;27;20168;-79
2022/08/30 01:10:42;;;;;;;20.02;11.02;;;;;;;19.42;90.26;95018.03;5122860;27;20230;-79
2022/08/30 01:13:12;;;;;;;20.38;13.38;;;;;;;19.38;91.00;95010.78;5123386;27;20204;-79
2022/08/30 01:15:38;;;;;;;18.55;12.52;;;;;;;19.39;91.15;95009.72;5120966;27;20672;-79
2022/08/30 01:18:03;;;;;;;22.23;13.57;;;;;;;19.35;91.48;94996.09;5130873;27;20187;-78
2022/08/30 01:20:37;;;;;;;18.65;12.18;;;;;;;19.46;91.14;95012.97;5122535;27;20239;-78
2022/08/30 01:23:09;;;;;;;18.40;12.30;;;;;;;19.45;91.06;95009.50;5129904;27;20180;-78
2022/08/30 01:25:36;;;;;;;18.45;12.45;;;;;;;19.42;90.94;95011.88;5117047;27;20200;-79
2022/08/30 01:28:08;;;;;;;21.33;12.98;;;;;;;19.43;90.77;95010.81;5127657;27;20173;-78
2022/08/30 01:30:34;;;;;;;20.88;12.90;;;;;;;19.29;91.23;94997.13;5122355;27;20177;-78
2022/08/30 01:33:02;;;;;;;16.95;12.32;;;;;;;19.35;91.51;95008.66;5127818;27;20187;-79
2022/08/30 01:35:33;;;;;;;22.67;13.48;;;;;;;19.32;91.22;95014.50;5125497;27;20191;-78
2022/08/30 01:38:00;;;;;;;24.17;13.60;;;;;;;19.31;91.78;95016.38;5125468;27;20207;-79
2022/08/30 01:40:25;;;;;;;18.88;12.98;;;;;;;19.32;91.61;95017.16;5116972;27;20181;-78
2022/08/30 01:42:50;;;;;;;18.20;12.50;;;;;;;19.33;91.12;95018.78;5134340;27;20176;-78
2022/08/30 01:45:16;;;;;;;15.70;11.93;;;;;;;19.30;91.20;95014.75;5125211;27;20192;-79
2022/08/30 01:47:41;;;;;;;18.80;11.85;;;;;;;19.30;91.61;95008.63;5125439;27;20542;-79
2022/08/30 01:50:08;;;;;;;15.02;11.50;;;;;;;19.29;91.39;94997.13;5125388;27;20228;-78
2022/08/30 01:52:34;;;;;;;16.77;10.75;;;;;;;19.25;90.57;94996.06;5125424;27;20187;-78
2022/08/30 01:55:00;;;;;;;21.05;11.18;;;;;;;18.97;91.28;94997.28;5113170;28;20181;-78
2022/08/30 01:57:27;;;;;;;20.02;12.38;;;;;;;18.94;92.11;94995.09;5121639;27;20282;-78
2022/08/30 01:59:52;;;;;;;15.60;11.45;;;;;;;18.97;92.42;94994.59;5112619;28;20652;-76
2022/08/30 02:02:21;;;;;;;16.25;11.07;;;;;;;18.99;92.65;94987.16;5112160;28;20185;-76
2022/08/30 02:04:48;;;;;;;17.05;11.85;;;;;;;19.02;92.51;94989.31;5122105;27;20280;-76
2022/08/30 02:07:14;;;;;;;17.70;12.43;;;;;;;19.01;92.13;94982.34;5120096;27;20177;-76
2022/08/30 02:09:39;;;;;;;19.75;12.32;;;;;;;19.07;91.66;94986.66;5117715;27;20249;-76
2022/08/30 02:12:06;;;;;;;21.60;13.65;;;;;;;18.99;92.04;94989.00;5119565;27;20208;-76
2022/08/30 02:14:36;;;;;;;17.70;11.27;;;;;;;18.76;91.53;94956.38;5093502;28;20221;-76
2022/08/30 02:17:03;;;;;;;16.70;12.55;;;;;;;18.95;92.01;94985.25;5129875;27;20547;-76
2022/08/30 02:19:29;;;;;;;16.40;11.32;;;;;;;18.99;91.65;94989.00;5111911;28;20171;-76
2022/08/30 02:21:55;;;;;;;20.00;11.73;;;;;;;18.97;91.72;94989.25;5111758;28;20169;-76
2022/08/30 02:24:20;;;;;;;20.80;12.60;;;;;;;18.97;91.24;94989.25;5129693;27;20188;-76
2022/08/30 02:26:45;;;;;;;17.48;11.57;;;;;;;18.96;91.64;94987.66;5111799;28;20180;-76
2022/08/30 02:29:11;;;;;;;14.82;11.00;;;;;;;18.97;91.49;94983.94;5118481;27;20180;-76
2022/08/30 02:31:36;;;;;;;18.48;11.77;;;;;;;18.96;91.70;94984.19;5132153;27;20241;-76
2022/08/30 02:34:03;;;;;;;13.50;10.38;;;;;;;18.96;91.78;94987.66;5132196;27;20191;-76
2022/08/30 02:36:28;;;;;;;13.93;10.30;;;;;;;18.96;90.99;94995.66;5122839;27;20184;-76
2022/08/30 02:38:54;;;;;;;13.32;10.82;;;;;;;18.92;91.48;94989.25;5132056;28;20605;-76
2022/08/30 02:41:22;;;;;;;12.68;9.77;;;;;;;18.91;90.96;94995.66;5132261;28;20193;-76
2022/08/30 02:43:48;;;;;;;16.13;10.02;;;;;;;18.82;91.21;94986.53;5132041;28;20639;-76
2022/08/30 02:46:14;;;;;;;22.48;11.40;;;;;;;18.83;91.62;94988.13;5119240;28;20204;-76
2022/08/30 02:48:39;;;;;;;13.95;10.32;;;;;;;18.60;91.58;94943.19;5111580;28;20173;-76
2022/08/30 02:51:08;;;;;;;23.70;10.48;;;;;;;18.83;91.48;94985.47;5111713;28;20210;-76
2022/08/30 02:53:34;;;;;;;13.75;9.65;;;;;;;18.71;91.41;94958.97;5111460;28;20229;-76
2022/08/30 02:56:00;;;;;;;16.65;9.70;;;;;;;18.85;91.29;94980.69;5111464;28;20264;-76
2022/08/30 02:58:26;;;;;;;18.30;11.18;;;;;;;18.82;91.39;94984.66;5127178;28;20172;-76
2022/08/30 03:00:51;;;;;;;16.92;10.23;;;;;;;18.86;91.23;94982.25;5122685;28;20173;-76
2022/08/30 03:03:16;;;;;;;15.20;9.90;;;;;;;18.91;90.80;94990.31;5113370;28;20655;-76
2022/08/30 03:05:42;;;;;;;18.67;9.50;;;;;;;18.83;90.94;94977.47;5131917;28;20212;-76
2022/08/30 03:08:08;;;;;;;16.42;9.80;;;;;;;18.76;91.35;94983.03;5131766;28;20214;-76
2022/08/30 03:10:33;;;;;;;15.90;9.30;;;;;;;18.79;91.55;94979.03;5124639;28;20264;-76
2022/08/30 03:12:59;;;;;;;13.88;9.77;;;;;;;18.61;91.29;94958.94;5125645;28;20187;-77
2022/08/30 03:15:25;;;;;;;12.95;10.15;;;;;;;18.67;91.57;94962.44;5117727;28;20212;-77
2022/08/30 03:17:52;;;;;;;13.18;9.73;;;;;;;18.76;91.13;94976.91;5122676;28;20180;-77
2022/08/30 03:20:20;;;;;;;14.43;9.55;;;;;;;18.71;90.84;94982.19;5117474;28;20208;-77
2022/08/30 03:22:45;;;;;;;19.58;11.80;;;;;;;18.64;91.30;94985.09;5123499;28;20173;-77
2022/08/30 03:25:11;;;;;;;17.63;11.68;;;;;;;18.62;91.93;94989.88;5117702;28;20619;-77
2022/08/30 03:27:36;;;;;;;26.67;16.50;;;;;;;18.60;92.04;94993.84;5118148;28;20172;-77
2022/08/30 03:30:03;;;;;;;18.55;12.40;;;;;;;18.50;92.07;94973.25;5127317;28;20179;-77
2022/08/30 03:32:29;;;;;;;27.60;17.73;;;;;;;18.64;92.08;94992.28;5118281;28;20176;-77
2022/08/30 03:34:54;;;;;;;26.33;13.25;;;;;;;18.65;91.70;94999.22;5118500;28;20165;-77
2022/08/30 03:37:20;;;;;;;27.60;10.23;;;;;;;18.58;91.98;94994.13;5122638;28;20209;-77
2022/08/30 03:39:45;;;;;;;22.80;15.60;;;;;;;18.50;92.20;94988.44;5120526;28;20199;-77
2022/08/30 03:42:11;;;;;;;35.97;19.05;;;;;;;18.52;92.46;94994.28;5120682;28;20631;-77
2022/08/30 03:44:37;;;;;;;30.42;18.08;;;;;;;18.47;92.23;94982.56;5130948;27;20220;-77
2022/08/30 03:47:04;;;;;;;30.58;18.73;;;;;;;18.61;92.38;94990.91;5125937;27;20169;-77
2022/08/30 03:49:30;;;;;;;24.38;16.05;;;;;;;18.53;92.11;94982.56;5120448;27;20234;-77
2022/08/30 03:51:56;;;;;;;19.35;13.50;;;;;;;18.60;91.92;94999.97;5125886;27;20173;-76
2022/08/30 03:54:21;;;;;;;23.25;15.38;;;;;;;18.61;91.83;95001.59;5120083;27;20192;-76
2022/08/30 03:56:46;;;;;;;15.43;11.88;;;;;;;18.60;91.88;94997.31;5135253;27;20234;-76
2022/08/30 03:59:12;;;;;;;50.20;26.88;;;;;;;18.61;91.95;94998.94;5121065;27;20181;-76
2022/08/30 04:01:37;;;;;;;20.00;14.88;;;;;;;18.59;92.04;94995.72;5134832;27;20179;-76
2022/08/30 04:04:03;;;;;;;16.02;11.82;;;;;;;18.54;92.09;94990.31;5134718;27;20272;-76
2022/08/30 04:06:28;;;;;;;21.25;13.30;;;;;;;18.55;92.63;94993.78;5127104;27;20583;-76
2022/08/30 04:08:54;;;;;;;23.30;14.88;;;;;;;18.61;92.65;95003.44;5128839;27;20180;-76
2022/08/30 04:11:20;;;;;;;20.25;10.95;;;;;;;18.60;92.53;95004.50;5118101;27;20213;-76
2022/08/30 04:13:48;;;;;;;20.30;9.85;;;;;;;18.55;92.89;94996.47;5115956;27;21677;-76
2022/08/30 04:16:13;;;;;;;23.80;14.57;;;;;;;18.62;92.71;95005.88;5113810;28;20290;-76
2022/08/30 04:18:39;;;;;;;20.38;13.95;;;;;;;18.65;92.66;95008.03;5123631;27;20177;-76
2022/08/30 04:21:05;;;;;;;16.92;10.18;;;;;;;18.68;92.60;95002.16;5121109;27;20257;-76
2022/08/30 04:23:30;;;;;;;22.77;15.43;;;;;;;18.73;92.90;95009.41;5128804;27;20172;-76
2022/08/30 04:25:56;;;;;;;23.05;14.23;;;;;;;18.80;92.29;95009.97;5130908;27;20735;-76
2022/08/30 04:28:22;;;;;;;17.70;11.20;;;;;;;18.82;92.67;95015.88;5128627;27;20169;-76
2022/08/30 04:30:47;;;;;;;18.15;11.55;;;;;;;18.89;92.41;95018.31;5126864;27;20251;-76
2022/08/30 04:33:14;;;;;;;11.93;10.50;;;;;;;18.87;92.74;95015.88;5126087;27;20310;-76
2022/08/30 04:35:46;;;;;;;22.83;11.95;;;;;;;18.91;93.05;95017.00;5122241;27;20199;-76
2022/08/30 04:38:15;;;;;;;20.05;12.20;;;;;;;18.93;93.09;95014.06;5122873;27;20196;-76
2022/08/30 04:40:42;;;;;;;18.42;11.48;;;;;;;19.04;93.10;95021.84;5114843;27;20169;-76
2022/08/30 04:43:07;;;;;;;19.00;11.32;;;;;;;18.83;92.49;94975.59;5114814;27;20185;-76
2022/08/30 04:45:33;;;;;;;14.80;10.80;;;;;;;19.13;92.71;95022.16;5123409;27;20205;-76
2022/08/30 04:47:58;;;;;;;19.25;10.60;;;;;;;19.22;92.51;95024.06;5134502;27;20172;-76
2022/08/30 04:50:24;;;;;;;20.40;11.52;;;;;;;19.27;92.49;95022.50;5134371;27;20164;-76
2022/08/30 04:52:49;;;;;;;18.95;12.07;;;;;;;19.29;92.88;95023.03;5128825;27;20176;-77
2022/08/30 04:55:16;;;;;;;20.90;11.63;;;;;;;19.34;93.21;95025.72;5121940;27;20247;-78
2022/08/30 04:57:42;;;;;;;24.42;13.07;;;;;;;19.28;93.06;95013.44;5125440;27;20183;-77
2022/08/30 05:00:11;;;;;;;29.70;14.23;;;;;;;19.38;92.30;95026.81;5125193;27;20167;-77
2022/08/30 05:02:38;;;;;;;18.20;12.02;;;;;;;19.20;91.87;95004.84;5129836;27;20207;-77
2022/08/30 05:07:48;;;;;;;16.33;11.93;;;;;;;19.42;91.55;95023.38;5125213;27;20231;-77
2022/08/30 05:10:14;;;;;;;26.85;11.25;;;;;;;19.53;91.29;95035.72;5115815;27;20260;-77
2022/08/30 05:12:40;;;;;;;21.33;11.10;;;;;;;19.58;91.43;95037.59;5125607;27;20180;-78
2022/08/30 05:15:06;;;;;;;20.67;11.60;;;;;;;19.61;91.29;95046.97;5134294;27;20212;-78
2022/08/30 05:17:32;;;;;;;18.23;10.95;;;;;;;19.65;91.46;95045.34;5117676;27;20572;-77
2022/08/30 05:20:00;;;;;;;17.48;10.55;;;;;;;19.68;91.36;95050.19;5107143;27;20172;-77
2022/08/30 05:22:26;;;;;;;17.48;10.95;;;;;;;19.70;90.56;95050.72;5113368;28;20252;-77
2022/08/30 05:24:52;;;;;;;24.75;11.05;;;;;;;19.66;89.91;95044.28;5122382;27;20276;-77
2022/08/30 05:27:17;;;;;;;20.65;13.10;;;;;;;19.60;89.38;95022.13;5113334;28;20177;-77
2022/08/30 05:29:42;;;;;;;26.10;15.88;;;;;;;19.71;89.69;95038.97;5122470;27;20188;-77
2022/08/30 05:32:08;;;;;;;26.13;17.75;;;;;;;19.82;89.73;95057.44;5112927;28;20624;-76
2022/08/30 05:34:33;;;;;;;23.27;14.68;;;;;;;19.87;89.88;95059.34;5112535;28;20169;-76
2022/08/30 05:37:01;;;;;;;19.63;11.93;;;;;;;19.70;89.17;95029.34;5129918;27;20183;-76
2022/08/30 05:39:27;;;;;;;25.45;14.35;;;;;;;19.75;89.92;95050.75;5113244;27;20274;-77
2022/08/30 05:41:56;;;;;;;20.02;14.10;;;;;;;19.75;90.13;95053.41;5116787;27;20255;-78
2022/08/30 05:44:21;;;;;;;20.85;12.20;;;;;;;19.78;90.46;95058.22;5129987;27;20176;-77
2022/08/30 05:46:47;;;;;;;19.42;12.88;;;;;;;19.71;91.40;95055.81;5133619;27;20227;-77
2022/08/30 05:49:14;;;;;;;24.10;14.93;;;;;;;19.86;91.30;95060.41;5133395;27;20183;-77
2022/08/30 05:51:39;;;;;;;29.85;18.77;;;;;;;19.76;91.37;95029.09;5133065;27;20198;-77
2022/08/30 05:54:05;;;;;;;23.17;15.57;;;;;;;19.95;92.17;95059.63;5116150;27;20176;-77
2022/08/30 05:56:33;;;;;;;26.35;16.38;;;;;;;19.90;92.40;95045.41;5112544;28;20177;-77
2022/08/30 05:59:00;;;;;;;22.55;16.42;;;;;;;20.07;92.46;95055.88;5110919;28;20172;-77
2022/08/30 06:01:26;;;;;;;27.80;17.75;;;;;;;20.13;92.43;95055.66;5110045;28;20173;-77
2022/08/30 06:03:54;;;;;;;21.95;12.85;;;;;;;20.19;92.42;95048.41;5111262;28;20176;-77
2022/08/30 06:06:20;;;;;;;23.55;13.80;;;;;;;20.26;92.53;95051.63;5130904;27;20206;-77
2022/08/30 06:08:47;;;;;;;21.95;12.75;;;;;;;20.29;93.03;95057.25;5122758;27;20168;-77
2022/08/30 06:11:15;;;;;;;24.55;13.45;;;;;;;20.28;93.33;95055.66;5132000;27;20176;-77
2022/08/30 06:13:40;;;;;;;26.58;13.07;;;;;;;20.28;93.62;95058.31;5122791;27;20193;-77
2022/08/30 06:16:06;;;;;;;28.25;17.48;;;;;;;20.28;93.90;95061.00;5120575;27;20243;-76
2022/08/30 06:18:32;;;;;;;25.67;15.05;;;;;;;20.37;94.32;95061.31;5115308;27;20176;-76
2022/08/30 06:20:57;;;;;;;25.25;15.80;;;;;;;20.34;93.90;95046.59;5112246;28;20177;-76
2022/08/30 06:23:23;;;;;;;22.90;12.70;;;;;;;20.31;93.29;95041.75;5120593;27;20181;-77
2022/08/30 06:25:49;;;;;;;32.05;14.07;;;;;;;20.41;92.09;95069.63;5126716;27;20583;-77
2022/08/30 06:28:14;;;;;;;21.75;13.40;;;;;;;20.13;93.51;95081.56;5132376;27;20172;-76
2022/08/30 06:30:41;;;;;;;23.67;15.05;;;;;;;20.07;94.50;95064.69;5116292;27;20314;-76
2022/08/30 06:33:07;;;;;;;28.15;18.58;;;;;;;20.23;94.29;95078.91;5130571;27;20211;-77
2022/08/30 06:35:33;;;;;;;31.52;19.95;;;;;;;20.18;94.50;95054.84;5123293;27;20216;-76
2022/08/30 06:37:58;;;;;;;28.10;17.90;;;;;;;20.45;94.53;95084.84;5127153;27;20161;-76
2022/08/30 06:40:24;;;;;;;19.13;13.52;;;;;;;20.54;93.72;95083.25;5120757;28;20173;-77
2022/08/30 06:42:50;;;;;;;17.45;12.90;;;;;;;20.52;92.23;95074.69;5130674;28;20176;-76
2022/08/30 06:45:17;;;;;;;23.67;15.70;;;;;;;20.72;91.43;95095.28;5132194;28;20573;-77
2022/08/30 06:47:42;;;;;;;18.80;13.10;;;;;;;20.81;90.81;95091.00;5132358;28;20160;-77
2022/08/30 06:50:09;;;;;;;16.50;12.43;;;;;;;20.80;89.46;95091.28;5132086;28;20182;-77
2022/08/30 06:52:35;;;;;;;23.10;14.98;;;;;;;20.86;89.49;95090.19;5132309;28;20168;-77
2022/08/30 06:55:00;;;;;;;17.00;12.48;;;;;;;20.97;89.60;95091.78;5122961;28;20176;-77
2022/08/30 06:57:26;;;;;;;17.92;12.00;;;;;;;20.68;87.02;95097.69;5126172;28;20165;-77
2022/08/30 06:59:56;;;;;;;19.42;13.52;;;;;;;20.67;88.61;95097.94;5120992;28;20177;-77
2022/08/30 07:02:22;;;;;;;33.20;13.63;;;;;;;20.83;89.87;95102.25;5129830;28;20168;-77
2022/08/30 07:04:47;;;;;;;19.23;12.98;;;;;;;20.92;89.52;95100.63;5111601;28;20203;-77
2022/08/30 07:07:13;;;;;;;19.52;12.63;;;;;;;20.86;89.83;95107.06;5111734;28;20553;-76
2022/08/30 07:09:42;;;;;;;19.95;13.55;;;;;;;20.42;91.52;95100.63;5111565;28;20177;-76
2022/08/30 07:12:11;;;;;;;21.70;14.07;;;;;;;20.42;92.81;95096.06;5111620;28;20181;-76
2022/08/30 07:14:37;;;;;;;24.45;14.30;;;;;;;20.53;92.53;95102.22;5116765;28;20205;-76
2022/08/30 07:18:49;;;;;;;35.63;15.73;;;;;;;20.67;92.68;95095.28;5131886;28;20607;-76
2022/08/30 07:19:52;;;;;;;27.48;15.60;;;;;;;20.86;93.13;95109.72;5126844;27;20233;-76
2022/08/30 07:22:18;;;;;;;22.17;14.50;;;;;;;20.86;91.78;95109.72;5135906;27;20176;-76
2022/08/30 07:24:43;;;;;;;20.77;14.77;;;;;;;20.87;90.96;95113.22;5126189;27;20206;-76
2022/08/30 07:27:09;;;;;;;21.13;13.25;;;;;;;20.93;90.57;95109.47;5127197;27;20279;-77
2022/08/30 07:29:34;;;;;;;21.23;13.50;;;;;;;21.01;92.24;95109.72;5116499;27;20165;-77
2022/08/30 07:32:00;;;;;;;18.38;13.50;;;;;;;21.10;91.56;95100.06;5119206;27;20165;-77
2022/08/30 07:34:26;;;;;;;24.58;13.15;;;;;;;21.03;91.10;95075.44;5121455;27;20172;-77
2022/08/30 07:36:51;;;;;;;16.23;12.63;;;;;;;21.31;90.88;95100.06;5122749;27;20164;-77
2022/08/30 07:39:17;;;;;;;15.73;11.90;;;;;;;21.24;90.58;95091.50;5122648;27;20221;-77
2022/08/30 07:41:43;;;;;;;15.50;11.90;;;;;;;21.24;90.81;95105.69;5118837;27;20263;-77
2022/08/30 07:44:09;;;;;;;17.88;11.68;;;;;;;21.22;90.27;95102.50;5120283;27;20606;-77
2022/08/30 07:46:37;;;;;;;14.35;11.77;;;;;;;21.28;90.52;95098.72;5123018;27;20249;-77
2022/08/30 07:49:03;;;;;;;17.00;12.25;;;;;;;21.43;91.28;95097.91;5120657;27;20169;-77
2022/08/30 07:51:29;;;;;;;22.30;14.27;;;;;;;21.49;91.22;95101.34;5119464;27;20168;-76
2022/08/30 07:53:55;;;;;;;20.42;14.73;;;;;;;21.51;91.38;95091.16;5118408;27;20260;-76
2022/08/30 07:56:21;;;;;;;20.20;13.80;;;;;;;21.68;90.17;95099.69;5118016;27;20713;-75
2022/08/30 07:58:47;;;;;;;14.40;11.95;;;;;;;21.60;88.43;95092.22;5119906;27;20169;-76
2022/08/30 08:01:13;;;;;;;17.15;11.60;;;;;;;21.66;88.97;95110.66;5134817;27;20220;-76
2022/08/30 08:03:40;;;;;;;14.27;11.32;;;;;;;21.63;89.50;95108.53;5125379;27;20229;-76
2022/08/30 08:06:07;;;;;;;17.38;11.80;;;;;;;21.46;90.94;95118.75;5126418;27;20189;-75
2022/08/30 08:08:34;;;;;;;17.50;12.73;;;;;;;21.30;89.02;95118.00;5113894;28;20521;-75
2022/08/30 08:11:09;;;;;;;28.20;17.38;;;;;;;21.36;90.28;95116.13;5095487;28;20608;-75
2022/08/30 08:13:35;;;;;;;28.33;19.30;;;;;;;21.56;91.64;95112.56;5128410;27;20556;-76
2022/08/30 08:16:01;;;;;;;22.48;16.08;;;;;;;21.66;89.78;95107.19;5128330;27;20224;-77
2022/08/30 08:18:26;;;;;;;24.13;12.98;;;;;;;21.62;87.16;95116.88;5114156;28;20173;-76
2022/08/30 08:20:51;;;;;;;26.55;14.48;;;;;;;21.53;87.67;95116.63;5114479;27;20200;-76
2022/08/30 08:23:17;;;;;;;24.20;14.48;;;;;;;21.47;89.95;95112.34;5117907;27;20656;-77
2022/08/30 08:25:42;;;;;;;18.60;13.38;;;;;;;21.48;89.99;95121.97;5125779;27;20200;-75
2022/08/30 08:28:08;;;;;;;19.70;13.20;;;;;;;21.19;89.40;95116.41;5127846;27;20187;-76
2022/08/30 08:30:36;;;;;;;22.60;13.27;;;;;;;21.16;91.10;95100.88;5116313;27;20173;-76
2022/08/30 08:33:02;;;;;;;20.75;13.57;;;;;;;21.06;91.14;95095.53;5134399;27;20184;-77
2022/08/30 08:35:28;;;;;;;18.20;12.15;;;;;;;21.05;90.15;95085.88;5120645;27;20180;-76
2022/08/30 08:37:53;;;;;;;21.85;11.93;;;;;;;21.14;90.41;95107.56;5113517;28;20542;-77
2022/08/30 08:40:19;;;;;;;20.35;13.70;;;;;;;21.22;89.14;95112.41;5132570;27;20229;-77
2022/08/30 08:43:01;;;;;;;17.05;12.02;;;;;;;21.25;90.34;95099.28;5125142;27;20213;-77
2022/08/30 08:45:52;;;;;;;18.13;11.30;;;;;;;21.56;90.32;95104.53;5123536;27;20204;-79
2022/08/30 08:48:32;;;;;;;21.08;12.52;;;;;;;21.79;90.57;95104.72;5105132;28;20567;-78
2022/08/30 08:53:49;;;;;;;17.10;11.45;;;;;;;21.98;89.11;95096.06;5132545;27;20236;-79
2022/08/30 08:56:17;;;;;;;18.27;12.05;;;;;;;22.12;91.00;95102.47;5123192;27;20153;-79
2022/08/30 08:58:54;;;;;;;18.10;12.23;;;;;;;22.16;91.71;95106.97;5127510;27;20184;-76
2022/08/30 09:01:29;;;;;;;17.17;12.40;;;;;;;22.20;90.76;95110.72;5121787;27;20202;-78
2022/08/30 09:03:56;;;;;;;19.42;13.73;;;;;;;22.23;89.42;95111.25;5122308;27;20264;-78
2022/08/30 09:06:55;;;;;;;25.90;19.25;;;;;;;22.25;89.91;95109.06;5117855;27;20248;-77
2022/08/30 09:09:26;;;;;;;24.48;17.55;;;;;;;22.32;90.38;95120.28;5116515;27;20213;-79
2022/08/30 09:11:51;;;;;;;22.63;14.50;;;;;;;22.35;89.12;95112.50;5120688;27;20248;-79
2022/08/30 09:14:33;;;;;;;21.98;14.43;;;;;;;22.30;87.94;95114.44;5121351;27;20295;-75
2022/08/30 09:17:04;;;;;;;20.95;14.98;;;;;;;22.31;88.48;95116.03;5121606;27;20187;-75
2022/08/30 09:19:36;;;;;;;20.63;14.35;;;;;;;22.34;89.31;95110.09;5112879;27;20177;-76
2022/08/30 09:22:15;;;;;;;22.13;12.77;;;;;;;22.35;87.85;95111.69;5124796;27;20179;-76
2022/08/30 09:24:46;;;;;;;21.00;14.75;;;;;;;22.32;88.10;95109.56;5120577;27;20208;-76
2022/08/30 09:27:18;;;;;;;18.40;13.93;;;;;;;22.30;87.90;95111.75;5127729;27;20172;-80
2022/08/30 09:29:56;;;;;;;17.73;13.32;;;;;;;22.33;87.83;95109.28;5125734;27;20184;-78
2022/08/30 09:32:26;;;;;;;24.42;13.88;;;;;;;22.29;88.21;95100.22;5115633;27;20243;-78
2022/08/30 09:34:52;;;;;;;19.58;13.73;;;;;;;22.26;89.08;95094.59;5114708;27;20314;-77
2022/08/30 09:37:25;;;;;;;20.75;13.02;;;;;;;22.42;87.24;95114.88;5119318;27;20259;-77
2022/08/30 09:39:51;;;;;;;27.52;20.38;;;;;;;22.44;86.48;95120.75;5126222;27;20200;-76
2022/08/30 09:42:24;;;;;;;20.08;14.02;;;;;;;22.45;88.75;95111.63;5120776;27;20636;-75
2022/08/30 09:44:50;;;;;;;18.25;14.18;;;;;;;22.45;88.71;95108.97;5127172;27;20201;-75
2022/08/30 09:47:24;;;;;;;15.40;11.10;;;;;;;22.47;84.82;95112.16;5128100;27;20204;-77
2022/08/30 09:50:07;;;;;;;18.05;12.35;;;;;;;22.46;85.17;95110.56;5122098;27;20184;-77
2022/08/30 09:52:51;;;;;;;22.25;13.85;;;;;;;22.47;84.23;95093.38;5120388;27;20180;-76
2022/08/30 09:55:40;;;;;;;20.10;12.10;;;;;;;22.49;84.66;95105.41;5116530;27;20586;-76
2022/08/30 09:58:18;;;;;;;19.67;13.52;;;;;;;22.47;84.36;95106.81;5125119;27;20216;-76
2022/08/30 10:01:05;;;;;;;15.88;11.30;;;;;;;22.37;85.26;95085.41;5114864;27;20180;-77
2022/08/30 10:03:40;;;;;;;16.52;10.93;;;;;;;22.47;83.08;95099.56;5117506;27;20611;-77
2022/08/30 10:06:44;;;;;;;17.83;11.20;;;;;;;22.48;83.71;95097.69;5132189;27;20196;-76
2022/08/30 10:09:32;;;;;;;22.13;14.48;;;;;;;22.52;83.71;95098.72;5112745;27;20263;-75
2022/08/30 10:12:36;;;;;;;18.73;13.90;;;;;;;22.59;83.81;95091.94;5115430;27;20276;-75
2022/08/30 10:15:07;;;;;;;23.63;11.95;;;;;;;22.67;84.68;95084.34;5036602;28;20249;-75
2022/08/30 10:17:51;;;;;;;22.10;16.23;;;;;;;22.79;85.24;95091.00;5031572;28;20195;-76
2022/08/30 10:20:34;;;;;;;24.30;13.73;;;;;;;22.90;85.41;95092.53;5082891;27;20714;-76
2022/08/30 10:23:11;;;;;;;20.33;14.77;;;;;;;22.99;84.74;95084.66;5115277;27;20670;-76
2022/08/30 10:25:54;;;;;;;32.05;14.32;;;;;;;23.16;84.04;95079.66;5111343;28;20208;-76
2022/08/30 10:28:36;;;;;;;26.80;15.43;;;;;;;23.21;83.19;95078.81;5112386;28;20179;-76
2022/08/30 10:31:08;;;;;;;22.85;13.93;;;;;;;23.30;83.53;95069.84;5111228;27;20165;-77
2022/08/30 10:33:39;;;;;;;21.85;14.00;;;;;;;23.38;81.80;95073.78;5119306;27;20647;-76
2022/08/30 10:36:14;;;;;;;19.95;12.88;;;;;;;23.43;81.67;95063.00;5130658;27;20172;-76
2022/08/30 10:38:48;;;;;;;20.52;13.43;;;;;;;23.40;80.09;95052.00;5130809;27;20198;-76
2022/08/30 10:41:33;;;;;;;20.65;13.80;;;;;;;23.56;82.12;95064.22;5130813;28;20167;-76
2022/08/30 10:44:10;;;;;;;17.95;11.52;;;;;;;23.62;83.70;95063.84;5110635;28;20754;-76
2022/08/30 10:46:53;;;;;;;22.90;14.65;;;;;;;23.74;84.21;95063.44;5117872;28;20261;-76
2022/08/30 10:49:22;;;;;;;18.13;11.68;;;;;;;23.81;84.53;95058.53;5130803;28;20561;-76
2022/08/30 10:51:56;;;;;;;18.38;12.80;;;;;;;23.88;81.67;95058.97;5131129;28;20239;-76
2022/08/30 10:54:30;;;;;;;17.27;12.00;;;;;;;23.93;80.61;95061.59;5129649;27;20263;-75
2022/08/30 10:56:56;;;;;;;19.38;11.60;;;;;;;23.82;79.60;95032.44;5115496;28;20169;-76
2022/08/30 10:59:21;;;;;;;20.60;11.70;;;;;;;24.04;80.03;95056.88;5128306;27;20182;-76
2022/08/30 11:02:05;;;;;;;16.52;12.20;;;;;;;24.06;80.42;95057.38;5124235;27;20153;-76
2022/08/30 11:05:15;;;;;;;22.92;11.93;;;;;;;24.16;81.03;95057.25;5124449;27;20255;-76
2022/08/30 11:07:40;;;;;;;18.88;12.60;;;;;;;24.30;81.66;95050.06;5135968;27;20255;-77
2022/08/30 11:10:29;;;;;;;17.70;11.43;;;;;;;24.41;82.03;95038.06;5135879;27;20753;-76
2022/08/30 11:13:04;;;;;;;16.98;10.50;;;;;;;24.52;82.03;95043.28;5135899;27;20176;-76
2022/08/30 11:15:34;;;;;;;23.92;11.57;;;;;;;24.60;80.58;95034.53;5123623;27;20208;-77
2022/08/30 11:18:03;;;;;;;17.77;10.95;;;;;;;24.75;78.01;95047.75;5134928;27;20176;-76
2022/08/30 11:21:00;;;;;;;18.17;10.90;;;;;;;24.87;79.88;95037.31;5123403;27;20177;-76
2022/08/30 11:23:32;;;;;;;14.45;10.93;;;;;;;24.91;78.06;95016.78;5055873;27;20191;-76
2022/08/30 11:26:03;;;;;;;19.98;12.27;;;;;;;25.12;78.02;95028.00;5135174;27;20199;-75
2022/08/30 11:28:34;;;;;;;15.63;11.38;;;;;;;25.25;75.87;95023.72;5135086;27;20190;-75
2022/08/30 11:31:36;;;;;;;17.92;10.80;;;;;;;25.36;76.00;95025.13;5116689;27;20179;-77